createdAt,value
2023-02-21T00:02:58.225Z,93.20
2023-02-21T00:08:18.444Z,93.20
2023-02-21T00:13:38.919Z,93.20
2023-02-21T00:18:59.467Z,93.20
2023-02-21T00:24:19.909Z,93.10
2023-02-21T00:29:40.300Z,93.10
2023-02-21T00:35:00.600Z,93.10
2023-02-21T00:40:20.817Z,93.10
2023-02-21T00:45:41.019Z,93.10
2023-02-21T00:51:01.452Z,93.00
2023-02-21T00:56:22.483Z,93.30
2023-02-21T01:01:42.911Z,93.00
2023-02-21T01:07:03.514Z,93.00
2023-02-21T01:12:24.597Z,93.00
2023-02-21T01:17:45.248Z,93.00
2023-02-21T01:23:06.525Z,93.00
2023-02-21T01:28:27.283Z,93.00
2023-02-21T01:33:47.603Z,92.80
2023-02-21T01:39:07.925Z,92.80
2023-02-21T01:44:48.158Z,92.90
2023-02-21T01:50:08.752Z,92.80
2023-02-21T01:55:30.469Z,92.80
2023-02-21T02:00:50.916Z,92.80
2023-02-21T02:06:17.550Z,92.80
2023-02-21T02:11:59.563Z,92.80
2023-02-21T02:17:04.317Z,92.80
2023-02-21T02:22:27.472Z,92.80
2023-02-21T02:28:00.802Z,92.90
2023-02-21T02:33:24.286Z,92.70
2023-02-21T02:38:26.138Z,92.70
2023-02-21T02:43:49.998Z,92.70
2023-02-21T02:49:06.160Z,92.70
2023-02-21T02:54:08.330Z,92.70
2023-02-21T02:59:18.044Z,92.70
2023-02-21T03:04:49.742Z,92.70
2023-02-21T03:10:07.272Z,92.80
2023-02-21T03:15:17.517Z,92.70
2023-02-21T03:20:21.354Z,92.70
2023-02-21T03:25:24.596Z,92.70
2023-02-21T03:30:30.518Z,92.70
2023-02-21T03:35:33.790Z,92.60
2023-02-21T03:40:36.173Z,92.60
2023-02-21T03:45:38.755Z,92.90
2023-02-21T03:50:48.149Z,92.70
2023-02-21T03:55:51.954Z,92.60
2023-02-21T04:00:59.762Z,92.60
2023-02-21T04:06:04.068Z,92.90
2023-02-21T04:11:06.894Z,92.60
2023-02-21T04:16:10.652Z,92.60
2023-02-21T04:21:18.555Z,92.60
2023-02-21T04:26:21.358Z,92.60
2023-02-21T04:31:26.313Z,92.50
2023-02-21T04:36:28.412Z,92.40
2023-02-21T04:41:30.579Z,92.40
2023-02-21T04:46:33.369Z,92.40
2023-02-21T04:51:35.542Z,92.40
2023-02-21T04:56:38.025Z,92.40
2023-02-21T05:01:40.005Z,92.40
2023-02-21T05:06:41.824Z,92.30
2023-02-21T05:11:43.658Z,92.30
2023-02-21T05:16:45.724Z,92.30
2023-02-21T05:21:47.699Z,92.30
2023-02-21T05:26:49.718Z,92.30
2023-02-21T05:31:51.739Z,92.30
2023-02-21T05:36:53.685Z,92.30
2023-02-21T05:41:55.582Z,92.30
2023-02-21T05:46:57.470Z,92.40
2023-02-21T05:51:59.443Z,92.30
2023-02-21T05:57:01.589Z,92.30
2023-02-21T06:02:03.910Z,92.40
2023-02-21T06:07:05.965Z,92.40
2023-02-21T06:12:07.984Z,92.40
2023-02-21T06:17:09.849Z,92.50
2023-02-21T06:22:12.078Z,92.50
2023-02-21T06:27:15.564Z,92.50
2023-02-21T06:32:18.029Z,92.40
2023-02-21T06:37:20.147Z,92.50
2023-02-21T06:42:22.889Z,92.50
2023-02-21T06:47:24.974Z,92.60
2023-02-21T06:52:26.765Z,92.60
2023-02-21T06:57:28.568Z,92.70
2023-02-21T07:02:30.437Z,92.70
2023-02-21T07:07:32.216Z,92.70
2023-02-21T07:12:34.079Z,92.70
2023-02-21T07:17:35.940Z,92.80
2023-02-21T07:22:37.781Z,92.90
2023-02-21T07:27:39.641Z,93.30
2023-02-21T07:32:41.454Z,92.90
2023-02-21T07:37:43.342Z,93.10
2023-02-21T07:42:45.295Z,93.20
2023-02-21T07:47:48.237Z,93.30
2023-02-21T07:52:50.456Z,93.50
2023-02-21T07:57:52.541Z,93.60
2023-02-21T08:02:54.332Z,93.60
2023-02-21T08:07:56.151Z,93.70
2023-02-21T08:12:58.042Z,93.90
2023-02-21T08:17:59.911Z,93.90
2023-02-21T08:23:01.901Z,94.10
2023-02-21T08:28:03.853Z,95.00
2023-02-21T08:33:06.059Z,95.90
2023-02-21T08:38:08.481Z,96.40
2023-02-21T08:43:10.314Z,97.30
2023-02-21T08:48:12.478Z,97.90
2023-02-21T08:53:15.628Z,98.90
2023-02-21T08:58:17.744Z,99.10
2023-02-21T09:03:19.598Z,99.90
2023-02-21T09:08:23.929Z,99.90
2023-02-21T09:13:29.158Z,99.90
2023-02-21T09:18:31.578Z,99.90
2023-02-21T09:23:33.410Z,99.90
2023-02-21T09:28:35.264Z,99.90
2023-02-21T09:33:41.105Z,99.90
2023-02-21T09:38:43.004Z,99.90
2023-02-21T09:43:50.998Z,99.90
2023-02-21T09:48:54.056Z,99.90
2023-02-21T09:53:58.019Z,99.90
2023-02-21T09:59:00.389Z,99.90
2023-02-21T10:04:39.618Z,99.90
2023-02-21T10:09:53.844Z,99.90
2023-02-21T10:15:37.002Z,99.90
2023-02-21T10:20:45.344Z,99.80
2023-02-21T10:25:47.279Z,99.90
2023-02-21T10:30:51.965Z,99.90
2023-02-21T10:35:55.119Z,99.90
2023-02-21T10:41:00.324Z,99.80
2023-02-21T10:46:13.533Z,99.80
2023-02-21T10:51:28.048Z,99.70
2023-02-21T10:56:30.664Z,99.70
2023-02-21T11:01:41.662Z,99.60
2023-02-21T11:06:56.828Z,99.40
2023-02-21T11:12:19.565Z,99.30
2023-02-21T11:17:23.096Z,99.40
2023-02-21T11:22:26.101Z,99.40
2023-02-21T11:27:31.321Z,99.50
2023-02-21T11:32:37.419Z,99.40
2023-02-21T11:37:55.994Z,99.20
2023-02-21T11:43:30.924Z,99.00
2023-02-21T11:48:42.485Z,98.90
2023-02-21T11:53:44.638Z,98.50
2023-02-21T11:59:03.367Z,98.40
2023-02-21T12:04:33.174Z,98.10
2023-02-21T12:09:59.589Z,98.10
2023-02-21T12:15:05.885Z,98.20
2023-02-21T12:20:52.191Z,98.00
2023-02-21T12:26:12.634Z,97.90
2023-02-21T12:31:38.925Z,97.80
2023-02-21T12:37:10.956Z,97.80
2023-02-21T12:42:12.805Z,98.00
2023-02-21T12:47:43.891Z,98.00
2023-02-21T12:53:04.574Z,98.00
2023-02-21T12:58:35.637Z,98.10
2023-02-21T13:03:52.661Z,98.10
2023-02-21T13:09:06.675Z,98.20
2023-02-21T13:14:12.922Z,98.30
2023-02-21T13:19:15.926Z,98.20
2023-02-21T13:24:45.727Z,98.10
2023-02-21T13:29:50.849Z,98.10
2023-02-21T13:35:00.455Z,98.30
2023-02-21T13:40:07.949Z,98.50
2023-02-21T13:45:12.860Z,98.60
2023-02-21T13:50:39.857Z,98.60
2023-02-21T13:56:07.599Z,98.50
2023-02-21T14:01:28.908Z,98.90
2023-02-21T14:06:34.801Z,98.60
2023-02-21T14:11:43.679Z,98.60
2023-02-21T14:17:04.154Z,98.60
2023-02-21T14:22:11.941Z,98.50
2023-02-21T14:27:13.693Z,98.40
2023-02-21T14:32:24.226Z,98.10
2023-02-21T14:37:40.778Z,97.90
2023-02-21T14:43:07.109Z,97.90
2023-02-21T14:48:27.013Z,98.00
2023-02-21T14:53:56.628Z,98.00
2023-02-21T14:59:36.311Z,97.80
2023-02-21T15:05:00.457Z,98.00
2023-02-21T15:10:14.459Z,97.90
2023-02-21T15:15:39.611Z,97.90
2023-02-21T15:20:42.597Z,97.80
2023-02-21T15:25:53.068Z,97.70
2023-02-21T15:31:08.077Z,97.70
2023-02-21T15:36:20.807Z,97.70
2023-02-21T15:41:46.021Z,97.70
2023-02-21T15:47:11.015Z,97.70
2023-02-21T15:52:34.380Z,97.70
2023-02-21T15:57:36.174Z,97.70
2023-02-21T16:02:38.020Z,98.00
2023-02-21T16:07:44.341Z,97.60
2023-02-21T16:12:48.703Z,97.10
2023-02-21T16:17:54.813Z,97.10
2023-02-21T16:23:17.976Z,96.90
2023-02-21T16:28:19.855Z,96.70
2023-02-21T16:33:21.864Z,96.70
2023-02-21T16:38:25.494Z,96.60
2023-02-21T16:43:29.369Z,96.40
2023-02-21T16:48:34.216Z,96.30
2023-02-21T16:53:36.589Z,96.30
2023-02-21T16:58:50.585Z,96.30
2023-02-21T17:03:53.952Z,96.20
2023-02-21T17:08:56.730Z,96.10
2023-02-21T17:13:58.525Z,96.00
2023-02-21T17:19:00.338Z,95.90
2023-02-21T17:24:02.430Z,95.70
2023-02-21T17:29:05.129Z,95.60
2023-02-21T17:34:07.052Z,95.50
2023-02-21T17:39:08.956Z,95.30
2023-02-21T17:44:10.773Z,95.30
2023-02-21T17:49:12.649Z,95.10
2023-02-21T17:54:16.554Z,94.90
2023-02-21T17:59:18.994Z,94.70
2023-02-21T18:04:21.169Z,94.60
2023-02-21T18:09:24.223Z,94.80
2023-02-21T18:14:30.132Z,94.40
2023-02-21T18:19:31.932Z,94.30
2023-02-21T18:24:33.790Z,94.20
2023-02-21T18:29:35.722Z,94.10
2023-02-21T18:34:37.641Z,94.00
2023-02-21T18:39:39.887Z,93.90
2023-02-21T18:44:41.715Z,93.80
2023-02-21T18:49:44.191Z,93.70
2023-02-21T18:54:49.445Z,93.60
2023-02-21T18:59:51.541Z,93.50
2023-02-21T19:04:53.448Z,93.40
2023-02-21T19:09:55.397Z,93.40
2023-02-21T19:14:57.203Z,93.30
2023-02-21T19:19:59.082Z,93.20
2023-02-21T19:25:00.948Z,93.10
2023-02-21T19:30:02.828Z,93.10
2023-02-21T19:35:05.879Z,93.30
2023-02-21T19:40:08.477Z,92.90
2023-02-21T19:45:10.457Z,92.80
2023-02-21T19:50:12.877Z,92.70
2023-02-21T19:55:15.721Z,92.70
2023-02-21T20:00:17.927Z,92.70
2023-02-21T20:05:19.811Z,92.60
2023-02-21T20:10:25.327Z,92.60
2023-02-21T20:15:27.239Z,92.50
2023-02-21T20:20:29.559Z,92.40
2023-02-21T20:25:31.604Z,92.40
2023-02-21T20:30:33.743Z,92.30
2023-02-21T20:35:35.863Z,92.20
2023-02-21T20:40:38.008Z,92.20
2023-02-21T20:45:39.923Z,92.10
2023-02-21T20:50:41.954Z,92.00
2023-02-21T20:55:43.837Z,92.00
2023-02-21T21:00:45.736Z,91.90
2023-02-21T21:05:50.690Z,91.90
2023-02-21T21:10:52.626Z,91.80
2023-02-21T21:15:54.723Z,91.80
2023-02-21T21:20:56.670Z,91.90
2023-02-21T21:26:01.915Z,91.50
2023-02-21T21:31:04.409Z,91.50
2023-02-21T21:36:09.817Z,91.50
2023-02-21T21:41:15.190Z,91.40
2023-02-21T21:46:17.323Z,91.40
2023-02-21T21:51:19.340Z,91.40
2023-02-21T21:56:26.432Z,91.30
2023-02-21T22:01:29.921Z,91.30
2023-02-21T22:06:32.078Z,91.30
2023-02-21T22:11:35.594Z,91.30
2023-02-21T22:16:39.451Z,91.30
2023-02-21T22:21:43.171Z,91.30
2023-02-21T22:26:45.076Z,91.20
2023-02-21T22:31:48.217Z,91.10
2023-02-21T22:36:52.069Z,91.20
2023-02-21T22:41:54.421Z,91.10
2023-02-21T22:46:59.905Z,91.00
2023-02-21T22:52:04.056Z,91.10
2023-02-21T22:57:07.279Z,91.00
2023-02-21T23:02:09.542Z,91.00
2023-02-21T23:07:11.314Z,90.90
2023-02-21T23:12:15.019Z,90.90
2023-02-21T23:17:17.743Z,90.90
2023-02-21T23:22:19.619Z,90.80
2023-02-21T23:27:21.427Z,91.30
2023-02-21T23:32:23.339Z,91.30
2023-02-21T23:37:25.145Z,91.30
2023-02-21T23:42:31.348Z,91.40
2023-02-21T23:47:33.180Z,91.30
2023-02-21T23:52:35.056Z,91.30
2023-02-21T23:57:37.195Z,91.30
